Time;durP1;ratioP1;P1;durP2;ratioP2;P2;SDS_P1;SDS_P2;PMS_P1;PMS_P2;Temp;Humidity;BMP_temperature;BMP_pressure;BME280_temperature;BME280_humidity;BME280_pressure;Samples;Min_cycle;Max_cycle;Signal;HPM_P1;HPM_P2
2022/08/25 00:01:29;;;;;;;5.33;3.50;;;23.40;99.90;;;;;;4936404;29;20532;-80
2022/08/25 00:03:55;;;;;;;10.20;3.90;;;23.40;99.90;;;;;;4937917;29;20804;-78
2022/08/25 00:06:21;;;;;;;7.00;3.33;;;23.30;99.90;;;;;;4936702;29;20970;-79
2022/08/25 00:08:48;;;;;;;6.97;3.57;;;23.30;99.90;;;;;;4936782;29;20462;-81
2022/08/25 00:11:18;;;;;;;6.37;3.60;;;23.30;99.90;;;;;;4936266;29;20197;-79
2022/08/25 00:13:47;;;;;;;6.67;3.50;;;23.30;99.90;;;;;;4937858;29;20414;-80
2022/08/25 00:16:15;;;;;;;7.20;3.97;;;23.30;99.90;;;;;;4936507;29;20418;-80
2022/08/25 00:18:44;;;;;;;6.07;3.60;;;23.30;99.90;;;;;;4936423;29;20465;-79
2022/08/25 00:21:11;;;;;;;9.13;4.80;;;23.30;99.90;;;;;;4936418;29;20520;-78
2022/08/25 00:23:36;;;;;;;5.67;3.60;;;23.20;99.90;;;;;;4936368;29;20441;-81
2022/08/25 00:26:02;;;;;;;7.43;4.53;;;23.10;99.90;;;;;;4936982;29;20425;-77
2022/08/25 00:28:29;;;;;;;6.80;4.63;;;23.10;99.90;;;;;;4920719;29;20549;-80
2022/08/25 00:30:57;;;;;;;7.47;4.30;;;23.00;99.90;;;;;;4937133;29;20205;-78
2022/08/25 00:33:25;;;;;;;7.77;4.93;;;22.90;99.90;;;;;;4936367;29;20414;-80
2022/08/25 00:35:51;;;;;;;11.47;4.17;;;22.80;99.90;;;;;;4936560;29;20453;-77
2022/08/25 00:38:17;;;;;;;6.93;3.63;;;22.80;99.90;;;;;;4937924;29;20969;-80
2022/08/25 00:40:43;;;;;;;8.23;4.60;;;22.80;99.90;;;;;;4936252;29;20508;-78
2022/08/25 00:43:10;;;;;;;7.80;4.20;;;22.70;99.90;;;;;;4937465;29;20771;-82
2022/08/25 00:45:37;;;;;;;5.63;3.97;;;22.60;99.90;;;;;;4937226;29;20778;-80
2022/08/25 00:48:03;;;;;;;10.13;4.80;;;22.50;99.90;;;;;;4936158;29;20436;-81
2022/08/25 00:50:32;;;;;;;8.03;4.00;;;22.50;99.90;;;;;;4935833;29;20450;-78
2022/08/25 00:53:01;;;;;;;6.10;3.90;;;22.50;99.90;;;;;;4936089;29;20418;-77
2022/08/25 00:55:35;;;;;;;6.93;3.73;;;22.50;99.90;;;;;;4937162;29;20464;-78
2022/08/25 00:58:16;;;;;;;8.50;4.37;;;22.50;99.90;;;;;;4937092;29;20425;-80
2022/08/25 01:00:49;;;;;;;6.07;3.47;;;22.40;99.90;;;;;;4936708;29;20440;-82
2022/08/25 01:03:17;;;;;;;4.73;3.57;;;22.40;99.90;;;;;;4920077;29;20422;-79
2022/08/25 01:05:45;;;;;;;4.40;3.50;;;22.40;99.90;;;;;;4935622;29;20453;-77
2022/08/25 01:08:11;;;;;;;10.83;4.20;;;22.40;99.90;;;;;;4935567;29;20450;-80
2022/08/25 01:10:41;;;;;;;4.83;3.40;;;22.50;99.90;;;;;;4936560;29;20434;-78
2022/08/25 01:13:14;;;;;;;6.20;3.10;;;22.50;99.90;;;;;;4937116;29;20505;-80
2022/08/25 01:15:40;;;;;;;4.13;3.10;;;22.50;99.90;;;;;;4936949;29;20422;-81
2022/08/25 01:18:06;;;;;;;5.40;2.70;;;22.50;99.90;;;;;;4936814;29;20422;-79
2022/08/25 01:20:33;;;;;;;8.30;3.00;;;22.50;99.90;;;;;;4935061;29;20448;-80
2022/08/25 01:23:00;;;;;;;4.87;3.13;;;22.50;99.90;;;;;;4936834;29;20608;-77
2022/08/25 01:25:45;;;;;;;4.77;3.00;;;22.40;99.90;;;;;;4919886;29;20501;-79
2022/08/25 01:28:11;;;;;;;3.07;2.50;;;22.30;99.90;;;;;;4936951;29;20405;-79
2022/08/25 01:30:37;;;;;;;3.60;2.77;;;22.30;99.90;;;;;;4936301;29;20473;-80
2022/08/25 01:33:08;;;;;;;5.80;2.80;;;22.30;99.90;;;;;;4935541;29;20449;-78
2022/08/25 01:35:35;;;;;;;3.63;3.27;;;22.30;99.90;;;;;;4936555;29;20410;-79
2022/08/25 01:38:02;;;;;;;3.90;2.50;;;22.30;99.90;;;;;;4936517;29;20425;-79
2022/08/25 01:40:28;;;;;;;5.20;3.57;;;22.30;99.90;;;;;;4935930;29;20441;-81
2022/08/25 01:43:11;;;;;;;3.90;3.10;;;22.30;99.90;;;;;;4935556;29;20952;-81
2022/08/25 01:45:39;;;;;;;6.20;3.00;;;22.30;99.90;;;;;;4936269;29;20846;-78
2022/08/25 01:48:06;;;;;;;3.60;2.97;;;22.20;99.90;;;;;;4936374;29;20413;-81
2022/08/25 01:50:32;;;;;;;5.03;3.10;;;22.00;99.90;;;;;;4935890;29;20442;-79
2022/08/25 01:52:58;;;;;;;4.20;2.90;;;21.80;99.90;;;;;;4934910;29;20578;-79
2022/08/25 01:55:24;;;;;;;3.10;2.80;;;21.80;99.90;;;;;;4936226;29;20508;-80
2022/08/25 01:57:49;;;;;;;4.57;3.00;;;21.80;99.90;;;;;;4935248;29;20197;-80
2022/08/25 02:00:17;;;;;;;7.10;3.20;;;21.70;99.90;;;;;;4935648;29;20220;-80
2022/08/25 02:02:43;;;;;;;4.83;3.00;;;21.70;99.90;;;;;;4934797;29;20185;-80
2022/08/25 02:05:12;;;;;;;5.73;3.60;;;21.50;99.90;;;;;;4936035;29;20413;-79
2022/08/25 02:07:39;;;;;;;5.73;2.93;;;21.40;99.90;;;;;;4936005;29;20488;-79
2022/08/25 02:10:06;;;;;;;6.30;3.10;;;21.40;99.90;;;;;;4934499;29;20422;-82
2022/08/25 02:12:33;;;;;;;4.50;2.70;;;21.30;99.90;;;;;;4934569;29;20804;-80
2022/08/25 02:15:00;;;;;;;10.00;3.10;;;21.10;99.90;;;;;;4934869;29;20965;-80
2022/08/25 02:17:26;;;;;;;3.63;3.00;;;21.10;99.90;;;;;;4934615;29;20468;-82
2022/08/25 02:19:54;;;;;;;5.13;2.90;;;21.10;99.90;;;;;;4935629;29;21018;-80
2022/08/25 02:22:20;;;;;;;4.80;3.40;;;21.00;99.90;;;;;;4934604;29;20433;-80
2022/08/25 02:24:46;;;;;;;7.83;3.23;;;20.90;99.90;;;;;;4935676;29;20498;-80
2022/08/25 02:27:12;;;;;;;5.63;3.67;;;20.80;99.90;;;;;;4934556;29;20190;-79
2022/08/25 02:29:38;;;;;;;6.77;3.17;;;20.80;99.90;;;;;;4935706;29;20418;-78
2022/08/25 02:32:04;;;;;;;4.23;3.40;;;20.70;99.90;;;;;;4935562;29;20469;-79
2022/08/25 02:34:31;;;;;;;4.13;3.00;;;20.70;99.90;;;;;;4934345;29;20197;-79
2022/08/25 02:36:57;;;;;;;3.87;3.03;;;20.60;99.90;;;;;;4934616;29;20434;-79
2022/08/25 02:39:22;;;;;;;4.50;2.80;;;20.50;99.90;;;;;;4918577;29;20465;-78
2022/08/25 02:41:48;;;;;;;3.30;2.80;;;20.50;99.90;;;;;;4934204;29;20202;-79
2022/08/25 02:44:13;;;;;;;3.57;2.50;;;20.50;99.90;;;;;;4935874;29;20190;-79
2022/08/25 02:46:39;;;;;;;3.10;2.37;;;20.60;99.90;;;;;;4935770;29;20238;-82
2022/08/25 02:49:06;;;;;;;4.03;2.60;;;20.70;99.90;;;;;;4934615;29;20192;-79
2022/08/25 02:51:33;;;;;;;4.50;2.60;;;20.70;99.90;;;;;;4934667;29;20701;-81
2022/08/25 02:54:01;;;;;;;4.80;2.23;;;20.80;99.90;;;;;;4939058;29;20779;-80
2022/08/25 02:56:27;;;;;;;8.23;2.30;;;20.90;99.90;;;;;;4939197;29;20833;-78
2022/08/25 02:58:53;;;;;;;3.70;2.40;;;20.90;99.90;;;;;;4939125;29;20844;-78
2022/08/25 03:01:19;;;;;;;3.73;2.50;;;20.90;99.90;;;;;;4906014;29;20458;-81
2022/08/25 03:03:46;;;;;;;6.50;2.90;;;21.00;99.90;;;;;;4937767;29;20422;-79
2022/08/25 03:06:14;;;;;;;3.57;2.57;;;21.00;99.90;;;;;;4937633;29;20481;-80
2022/08/25 03:08:40;;;;;;;6.27;2.30;;;21.00;99.90;;;;;;4937588;29;20450;-80
2022/08/25 03:11:07;;;;;;;4.57;2.07;;;21.10;99.90;;;;;;4938696;29;20883;-81
2022/08/25 03:13:33;;;;;;;3.47;2.63;;;21.10;99.90;;;;;;4938257;29;20974;-81
2022/08/25 03:16:00;;;;;;;3.37;2.47;;;21.00;99.90;;;;;;4937852;29;20425;-81
2022/08/25 03:18:26;;;;;;;4.37;2.57;;;21.00;99.90;;;;;;4937766;29;20464;-79
2022/08/25 03:20:52;;;;;;;2.50;2.17;;;21.00;99.90;;;;;;4937453;29;20453;-80
2022/08/25 03:23:18;;;;;;;2.47;2.27;;;21.00;99.90;;;;;;4939028;29;20505;-78
2022/08/25 03:28:30;;;;;;;3.00;2.40;;;21.00;99.90;;;;;;4939354;29;20832;-78
2022/08/25 03:30:56;;;;;;;4.50;2.77;;;21.10;99.90;;;;;;4937243;29;20445;-80
2022/08/25 03:33:21;;;;;;;4.53;2.80;;;21.10;99.90;;;;;;4938912;29;20425;-78
2022/08/25 03:35:47;;;;;;;4.67;2.23;;;21.10;99.90;;;;;;4938746;29;20437;-80
2022/08/25 03:38:12;;;;;;;5.17;2.60;;;21.00;99.90;;;;;;4937170;29;20294;-79
2022/08/25 03:40:38;;;;;;;3.10;2.17;;;21.00;99.90;;;;;;4937014;29;20254;-80
2022/08/25 03:43:04;;;;;;;5.20;2.77;;;20.90;99.90;;;;;;4921559;29;20280;-79
2022/08/25 03:45:29;;;;;;;6.10;2.90;;;21.00;99.90;;;;;;4938281;29;20217;-78
2022/08/25 03:47:55;;;;;;;2.50;2.30;;;21.00;99.90;;;;;;4937546;29;20182;-79
2022/08/25 03:50:22;;;;;;;4.60;2.70;;;20.90;99.90;;;;;;4936992;29;20208;-78
2022/08/25 03:52:55;;;;;;;2.50;2.30;;;20.90;99.90;;;;;;4937120;29;20229;-81
2022/08/25 03:55:23;;;;;;;3.40;2.50;;;20.80;99.90;;;;;;4937031;29;20421;-80
2022/08/25 03:57:50;;;;;;;4.10;2.57;;;20.80;99.90;;;;;;4938396;29;20417;-81
2022/08/25 04:00:16;;;;;;;5.57;2.47;;;20.80;99.90;;;;;;4936563;29;20517;-80
2022/08/25 04:02:42;;;;;;;3.20;2.60;;;20.80;99.90;;;;;;4938272;29;20427;-81
2022/08/25 04:05:08;;;;;;;2.60;2.40;;;20.80;99.90;;;;;;4936172;29;20436;-80
2022/08/25 04:07:34;;;;;;;4.63;2.50;;;20.70;99.90;;;;;;4936610;29;20178;-80
2022/08/25 04:10:00;;;;;;;5.80;2.93;;;20.70;99.90;;;;;;4936200;29;20484;-80
2022/08/25 04:12:25;;;;;;;3.03;2.67;;;20.70;99.90;;;;;;4937728;29;20186;-80
2022/08/25 04:14:51;;;;;;;2.70;2.30;;;20.60;99.90;;;;;;4936556;29;20668;-79
2022/08/25 04:17:17;;;;;;;3.80;2.97;;;20.60;99.90;;;;;;4936516;29;20694;-78
2022/08/25 04:19:43;;;;;;;3.10;2.70;;;20.50;99.90;;;;;;4937196;29;20210;-79
2022/08/25 04:22:09;;;;;;;7.30;3.90;;;20.50;99.90;;;;;;4936420;29;20442;-80
2022/08/25 04:24:34;;;;;;;5.80;2.80;;;20.40;99.90;;;;;;4936629;29;20549;-78
2022/08/25 04:27:00;;;;;;;4.00;2.60;;;20.30;99.90;;;;;;4920638;29;20666;-79
2022/08/25 04:29:26;;;;;;;3.33;2.60;;;20.30;99.90;;;;;;4936308;29;20194;-80
2022/08/25 04:31:53;;;;;;;4.20;2.67;;;20.30;99.90;;;;;;4937258;29;20217;-80
2022/08/25 04:34:23;;;;;;;5.70;3.07;;;20.30;99.90;;;;;;4937719;29;20264;-80
2022/08/25 04:36:49;;;;;;;3.23;2.93;;;20.40;99.90;;;;;;4937542;29;20430;-80
2022/08/25 04:39:16;;;;;;;10.23;2.90;;;20.50;99.90;;;;;;4936196;29;20469;-78
2022/08/25 04:41:42;;;;;;;6.60;2.77;;;20.40;99.90;;;;;;4937147;28;20442;-78
2022/08/25 04:44:07;;;;;;;3.90;2.83;;;20.40;99.90;;;;;;4937432;29;20473;-81
2022/08/25 04:46:34;;;;;;;4.17;3.00;;;20.30;99.90;;;;;;4920278;29;20248;-78
2022/08/25 04:49:01;;;;;;;5.80;3.23;;;20.40;99.90;;;;;;4904827;29;20189;-80
2022/08/25 04:51:34;;;;;;;3.50;3.20;;;20.30;99.90;;;;;;4937216;29;20533;-80
2022/08/25 04:54:04;;;;;;;5.00;3.77;;;20.10;99.90;;;;;;4938394;29;20426;-78
2022/08/25 04:56:32;;;;;;;4.77;3.70;;;20.10;99.90;;;;;;4935945;29;20430;-79
2022/08/25 04:59:02;;;;;;;4.20;3.53;;;19.70;99.90;;;;;;4936227;29;20499;-76
2022/08/25 05:01:28;;;;;;;11.10;4.10;;;19.30;99.90;;;;;;4947878;29;20453;-80
2022/08/25 05:03:59;;;;;;;8.60;3.60;;;19.30;99.90;;;;;;4956566;29;20424;-78
2022/08/25 05:06:27;;;;;;;13.77;4.10;;;19.10;99.90;;;;;;4939330;29;20245;-80
2022/08/25 05:08:54;;;;;;;15.57;5.47;;;19.00;99.90;;;;;;4955308;29;20516;-78
2022/08/25 05:11:21;;;;;;;14.80;4.70;;;18.80;99.90;;;;;;4954900;28;20453;-78
2022/08/25 05:13:48;;;;;;;10.20;5.40;;;18.80;99.90;;;;;;4954386;29;20770;-77
2022/08/25 05:16:14;;;;;;;23.33;5.40;;;18.70;99.90;;;;;;4954007;28;20758;-80
2022/08/25 05:18:41;;;;;;;19.50;5.40;;;18.50;99.90;;;;;;4954278;29;20524;-79
2022/08/25 05:21:09;;;;;;;17.63;5.10;;;18.40;99.90;;;;;;4954412;28;20520;-85
2022/08/25 05:23:36;;;;;;;21.00;5.30;;;18.30;99.90;;;;;;4956171;28;20413;-85
2022/08/25 05:26:06;;;;;;;15.63;6.33;;;18.40;99.90;;;;;;4938684;29;20404;-77
2022/08/25 05:28:31;;;;;;;14.30;4.60;;;18.40;99.90;;;;;;4956078;28;20417;-78
2022/08/25 05:30:59;;;;;;;14.00;4.33;;;18.50;99.90;;;;;;4953961;28;20798;-77
2022/08/25 05:33:26;;;;;;;13.60;4.70;;;18.40;99.90;;;;;;4955008;28;20235;-82
2022/08/25 05:35:51;;;;;;;9.00;4.63;;;18.60;99.90;;;;;;4953481;29;20461;-81
2022/08/25 05:38:17;;;;;;;10.07;4.17;;;18.80;99.90;;;;;;4954819;29;20427;-81
2022/08/25 05:40:43;;;;;;;10.47;4.80;;;18.80;99.90;;;;;;4954721;28;20221;-82
2022/08/25 05:43:09;;;;;;;6.93;4.10;;;18.90;99.90;;;;;;4954338;29;20236;-82
2022/08/25 05:45:35;;;;;;;18.20;4.70;;;18.90;99.90;;;;;;4955633;28;20248;-81
2022/08/25 05:48:01;;;;;;;5.50;4.47;;;19.00;99.90;;;;;;4954224;29;20912;-78
2022/08/25 05:50:27;;;;;;;8.30;3.93;;;19.20;99.90;;;;;;4955135;28;20655;-82
2022/08/25 05:52:53;;;;;;;4.37;3.80;;;19.40;99.90;;;;;;4954175;29;20433;-79
2022/08/25 05:55:19;;;;;;;8.43;4.07;;;19.60;99.90;;;;;;4955171;28;20272;-79
2022/08/25 05:57:44;;;;;;;7.87;4.20;;;19.70;99.90;;;;;;4955327;28;20425;-80
2022/08/25 06:00:11;;;;;;;12.07;4.00;;;19.90;99.90;;;;;;4954791;28;20790;-79
2022/08/25 06:02:42;;;;;;;11.77;3.53;;;20.10;99.90;;;;;;4955349;28;20174;-79
2022/08/25 06:05:16;;;;;;;7.33;4.03;;;20.20;99.90;;;;;;4955396;28;20808;-80
2022/08/25 06:07:43;;;;;;;8.10;3.60;;;20.40;99.90;;;;;;4955296;28;20408;-79
2022/08/25 06:10:12;;;;;;;10.73;3.90;;;20.50;99.90;;;;;;4953508;28;20448;-79
2022/08/25 06:12:43;;;;;;;4.60;3.70;;;20.60;99.90;;;;;;4954002;28;20428;-79
2022/08/25 06:15:10;;;;;;;10.63;4.23;;;20.70;99.90;;;;;;4955210;28;20432;-79
2022/08/25 06:17:39;;;;;;;7.43;3.53;;;20.80;99.90;;;;;;4938115;29;20436;-79
2022/08/25 06:20:10;;;;;;;9.27;4.77;;;20.90;99.90;;;;;;4953499;28;20476;-79
2022/08/25 06:22:36;;;;;;;11.20;4.23;;;21.00;99.90;;;;;;4953790;29;20447;-78
2022/08/25 06:25:03;;;;;;;9.50;4.47;;;21.20;99.90;;;;;;4954623;28;20425;-79
2022/08/25 06:27:29;;;;;;;5.20;3.90;;;21.30;99.90;;;;;;4955981;28;20420;-79
2022/08/25 06:29:54;;;;;;;6.53;3.97;;;21.40;99.90;;;;;;4958511;28;20432;-79
2022/08/25 06:32:20;;;;;;;8.53;5.10;;;21.50;99.90;;;;;;4941652;29;20189;-80
2022/08/25 06:34:46;;;;;;;7.37;4.40;;;21.60;99.90;;;;;;4958733;29;20201;-79
2022/08/25 06:37:11;;;;;;;9.07;4.30;;;21.70;99.90;;;;;;4959040;29;20189;-79
2022/08/25 06:39:37;;;;;;;7.53;4.37;;;21.80;99.90;;;;;;4958477;29;20365;-79
2022/08/25 06:42:03;;;;;;;9.33;3.70;;;21.90;99.90;;;;;;4958091;28;20193;-79
2022/08/25 06:44:29;;;;;;;8.43;3.50;;;21.90;99.90;;;;;;4958486;29;20178;-80
2022/08/25 06:46:54;;;;;;;5.23;3.40;;;22.10;99.90;;;;;;4957373;29;20432;-79
2022/08/25 06:49:20;;;;;;;7.57;4.00;;;22.10;99.90;;;;;;4941468;29;20263;-79
2022/08/25 06:51:46;;;;;;;10.97;4.20;;;22.30;99.90;;;;;;4956871;28;20209;-79
2022/08/25 06:54:12;;;;;;;7.73;3.97;;;22.40;99.90;;;;;;4958508;28;20416;-79
2022/08/25 06:56:41;;;;;;;4.30;3.40;;;22.50;99.90;;;;;;4957129;29;20548;-79
2022/08/25 06:59:08;;;;;;;8.60;4.90;;;22.60;99.90;;;;;;4957091;29;20618;-79
2022/08/25 07:01:34;;;;;;;7.60;4.40;;;22.70;99.90;;;;;;4957917;28;20440;-79
2022/08/25 07:04:02;;;;;;;7.00;3.47;;;22.80;99.90;;;;;;4957068;29;20503;-79
2022/08/25 07:06:30;;;;;;;8.70;3.97;;;23.00;99.90;;;;;;4956785;29;20440;-79
2022/08/25 07:08:56;;;;;;;11.23;3.83;;;23.10;99.90;;;;;;4958063;28;20508;-79
2022/08/25 07:11:23;;;;;;;12.20;5.27;;;23.20;99.90;;;;;;4957774;28;20444;-78
2022/08/25 07:13:49;;;;;;;8.30;3.90;;;23.30;99.90;;;;;;4957072;28;20512;-79
2022/08/25 07:16:16;;;;;;;7.83;4.73;;;23.40;99.90;;;;;;4958102;28;20420;-79
2022/08/25 07:18:43;;;;;;;7.60;4.47;;;23.50;99.90;;;;;;4956310;29;20567;-78
2022/08/25 07:21:09;;;;;;;5.57;3.87;;;23.60;99.90;;;;;;4956989;28;20459;-79
2022/08/25 07:23:36;;;;;;;4.70;3.57;;;23.60;99.90;;;;;;4957799;29;20464;-79
2022/08/25 07:26:14;;;;;;;8.67;3.90;;;23.60;99.90;;;;;;4956844;29;20449;-79
2022/08/25 07:28:41;;;;;;;9.67;4.37;;;23.60;99.90;;;;;;4957698;29;20773;-78
2022/08/25 07:31:06;;;;;;;6.57;3.90;;;23.70;99.90;;;;;;4940110;29;20972;-79
2022/08/25 07:33:32;;;;;;;6.37;3.80;;;23.90;99.90;;;;;;4957647;29;20421;-79
2022/08/25 07:35:58;;;;;;;6.63;3.10;;;24.00;99.90;;;;;;4957500;29;20431;-79
2022/08/25 07:38:24;;;;;;;4.93;3.30;;;24.00;99.90;;;;;;4951655;28;22140;-78
2022/08/25 07:40:53;;;;;;;8.30;3.10;;;24.20;99.90;;;;;;4938365;29;20201;-85
2022/08/25 07:43:21;;;;;;;3.27;2.80;;;24.30;99.90;;;;;;4940142;29;20225;-87
2022/08/25 07:45:47;;;;;;;3.93;2.50;;;24.50;99.90;;;;;;4937622;29;20453;-76
2022/08/25 07:48:14;;;;;;;7.93;3.00;;;24.40;99.90;;;;;;4938648;29;20838;-77
2022/08/25 07:50:46;;;;;;;7.53;2.67;;;24.40;99.90;;;;;;4936588;29;20441;-77
2022/08/25 07:53:14;;;;;;;3.80;2.47;;;24.40;99.90;;;;;;4938060;29;20795;-76
2022/08/25 07:55:40;;;;;;;7.37;3.77;;;24.50;99.90;;;;;;4938172;29;20970;-77
2022/08/25 07:58:08;;;;;;;6.43;3.00;;;24.50;99.90;;;;;;4938032;29;20413;-77
2022/08/25 08:00:35;;;;;;;2.93;2.63;;;24.60;99.90;;;;;;4937514;29;20954;-76
2022/08/25 08:03:05;;;;;;;4.73;3.10;;;24.60;99.90;;;;;;4938018;29;20449;-75
2022/08/25 08:05:31;;;;;;;10.10;3.23;;;24.70;99.90;;;;;;4937953;29;20444;-76
2022/08/25 08:07:58;;;;;;;4.53;2.73;;;24.70;99.90;;;;;;4937818;29;20425;-77
2022/08/25 08:10:24;;;;;;;6.60;3.30;;;24.80;99.90;;;;;;4937325;29;20229;-77
2022/08/25 08:12:51;;;;;;;4.43;3.37;;;24.90;99.90;;;;;;4937632;29;20494;-76
2022/08/25 08:15:18;;;;;;;6.33;3.37;;;25.10;99.90;;;;;;4937519;29;20417;-76
2022/08/25 08:17:43;;;;;;;8.13;3.10;;;25.30;99.90;;;;;;4936414;29;20426;-77
2022/08/25 08:20:10;;;;;;;4.43;3.27;;;25.50;99.90;;;;;;4936030;29;20524;-77
2022/08/25 08:22:39;;;;;;;7.20;4.03;;;25.70;99.90;;;;;;4936324;29;20417;-76
2022/08/25 08:25:06;;;;;;;3.10;2.80;;;26.00;99.90;;;;;;4937370;29;20488;-77
2022/08/25 08:27:32;;;;;;;4.50;3.30;;;26.20;99.90;;;;;;4937226;29;20414;-77
2022/08/25 08:29:57;;;;;;;4.70;3.07;;;26.60;99.90;;;;;;4936795;29;20429;-76
2022/08/25 08:32:23;;;;;;;5.37;2.90;;;27.10;99.90;;;;;;4937403;29;20551;-76
2022/08/25 08:34:49;;;;;;;7.33;3.03;;;27.40;99.90;;;;;;4937448;29;20556;-77
2022/08/25 08:37:15;;;;;;;5.90;3.10;;;27.80;99.90;;;;;;4937331;29;20181;-76
2022/08/25 08:39:41;;;;;;;5.40;2.60;;;28.00;99.90;;;;;;4935777;29;20710;-79
2022/08/25 08:42:20;;;;;;;3.20;2.90;;;28.10;99.90;;;;;;4935888;29;20524;-77
2022/08/25 08:45:20;;;;;;;5.53;2.77;;;28.30;99.90;;;;;;4937420;29;20425;-76
2022/08/25 08:48:05;;;;;;;4.20;2.70;;;28.30;99.90;;;;;;4937146;29;20422;-77
2022/08/25 08:50:36;;;;;;;7.93;3.27;;;28.80;99.90;;;;;;4936659;29;20433;-76
2022/08/25 08:53:07;;;;;;;7.93;2.70;;;29.40;99.90;;;;;;4937140;29;20413;-76
2022/08/25 08:55:39;;;;;;;3.73;3.43;;;30.30;99.90;;;;;;4935721;29;20495;-76
2022/08/25 08:58:11;;;;;;;4.40;2.70;;;30.90;99.90;;;;;;4936993;29;20777;-76
2022/08/25 09:00:45;;;;;;;4.33;2.90;;;31.00;99.90;;;;;;4936446;29;20434;-77
2022/08/25 09:03:22;;;;;;;5.47;3.37;;;31.10;99.90;;;;;;4936772;29;20406;-77
2022/08/25 09:05:52;;;;;;;5.23;3.17;;;32.00;99.90;;;;;;4936663;29;20801;-76
2022/08/25 09:08:17;;;;;;;5.30;3.80;;;31.50;99.90;;;;;;4936920;29;20404;-75
2022/08/25 09:11:01;;;;;;;3.47;2.87;;;31.50;99.90;;;;;;4936449;29;20429;-77
2022/08/25 09:13:35;;;;;;;3.83;2.97;;;31.90;99.90;;;;;;4936606;29;20201;-77
2022/08/25 09:19:30;;;;;;;4.73;3.20;;;31.70;99.90;;;;;;4936561;29;20830;-77
2022/08/25 09:22:09;;;;;;;4.70;3.37;;;32.10;99.90;;;;;;4936230;29;20449;-77
2022/08/25 09:24:48;;;;;;;4.27;2.97;;;32.90;99.90;;;;;;4935266;29;20430;-77
2022/08/25 09:27:28;;;;;;;6.47;3.20;;;33.30;99.90;;;;;;4936546;29;20410;-77
2022/08/25 09:30:06;;;;;;;6.37;3.07;;;33.10;99.90;;;;;;4934789;29;20661;-76
2022/08/25 09:32:37;;;;;;;5.80;3.00;;;32.50;99.90;;;;;;4936383;29;20414;-76
2022/08/25 09:35:04;;;;;;;6.53;3.47;;;33.00;99.90;;;;;;4936402;29;20811;-76
2022/08/25 09:37:30;;;;;;;7.30;3.80;;;33.50;99.90;;;;;;4936321;29;20420;-76
2022/08/25 09:39:56;;;;;;;4.50;2.90;;;33.80;99.90;;;;;;4935745;29;20457;-79
2022/08/25 09:42:41;;;;;;;3.20;2.80;;;34.60;99.90;;;;;;4936381;29;20204;-77
2022/08/25 09:45:12;;;;;;;5.57;3.23;;;34.50;98.80;;;;;;4941820;29;20199;-76
2022/08/25 09:47:43;;;;;;;5.57;3.87;;;33.40;99.60;;;;;;4954808;29;20462;-77
2022/08/25 09:50:15;;;;;;;4.10;3.03;;;34.00;99.60;;;;;;4953750;28;21355;-76
2022/08/25 09:52:41;;;;;;;4.13;3.20;;;33.70;98.70;;;;;;4955316;28;20412;-75
2022/08/25 09:55:12;;;;;;;10.53;3.50;;;34.00;98.60;;;;;;4955393;28;20470;-76
2022/08/25 09:57:41;;;;;;;6.20;3.20;;;33.80;98.50;;;;;;4955160;29;20445;-76
2022/08/25 10:00:11;;;;;;;5.23;3.10;;;34.30;98.90;;;;;;4954608;28;20531;-76
2022/08/25 10:02:37;;;;;;;3.40;2.97;;;35.00;97.20;;;;;;4954740;28;20822;-76
2022/08/25 10:05:19;;;;;;;4.77;2.50;;;35.30;94.70;;;;;;4954062;28;20420;-76
2022/08/25 10:07:58;;;;;;;4.60;2.40;;;34.90;93.80;;;;;;4955104;28;20172;-77
2022/08/25 10:10:43;;;;;;;5.33;2.50;;;34.70;93.40;;;;;;4954733;28;20436;-76
2022/08/25 10:13:18;;;;;;;2.90;2.40;;;34.80;94.30;;;;;;4955157;28;20415;-77
2022/08/25 10:15:44;;;;;;;3.73;2.60;;;35.10;92.50;;;;;;4955439;28;20782;-76
2022/08/25 10:18:28;;;;;;;3.00;2.70;;;35.20;91.40;;;;;;4954075;29;20409;-75
2022/08/25 10:21:11;;;;;;;5.23;2.90;;;35.60;91.00;;;;;;4954678;28;20199;-77
2022/08/25 10:23:41;;;;;;;3.10;2.80;;;35.90;89.90;;;;;;4955077;28;20471;-77
2022/08/25 10:26:32;;;;;;;2.57;2.37;;;35.80;87.30;;;;;;4954941;28;20428;-77
2022/08/25 10:29:27;;;;;;;2.53;2.23;;;35.40;86.90;;;;;;4954994;29;20776;-77
2022/08/25 10:32:01;;;;;;;2.70;2.50;;;35.50;83.20;;;;;;4954464;28;20966;-77
2022/08/25 10:34:44;;;;;;;3.20;2.90;;;35.30;80.20;;;;;;4953635;29;20937;-77
2022/08/25 10:37:28;;;;;;;4.27;2.80;;;35.10;80.10;;;;;;4955090;28;20617;-75
2022/08/25 10:40:10;;;;;;;8.77;2.83;;;35.30;82.80;;;;;;4954807;28;20870;-77
2022/08/25 10:43:01;;;;;;;2.50;2.30;;;35.40;80.40;;;;;;4955024;28;20830;-77
2022/08/25 10:45:44;;;;;;;2.27;2.07;;;35.60;78.50;;;;;;4954782;28;20424;-78
2022/08/25 10:48:24;;;;;;;3.67;2.30;;;36.60;74.10;;;;;;4954889;28;20409;-78
2022/08/25 10:51:07;;;;;;;2.43;2.10;;;36.50;71.30;;;;;;4954502;28;20478;-77
2022/08/25 10:53:56;;;;;;;3.10;2.40;;;36.50;69.60;;;;;;4954654;28;20419;-77
2022/08/25 10:56:49;;;;;;;3.53;2.23;;;37.00;66.60;;;;;;4954643;29;20401;-76
2022/08/25 10:59:53;;;;;;;3.13;2.80;;;36.70;70.50;;;;;;4954822;28;20466;-77
2022/08/25 11:02:33;;;;;;;4.00;2.73;;;36.10;71.70;;;;;;4895661;29;20434;-77
2022/08/25 11:05:06;;;;;;;2.70;2.50;;;36.40;72.30;;;;;;4895920;29;20525;-77
2022/08/25 11:07:43;;;;;;;3.07;2.20;;;36.60;69.40;;;;;;4923781;29;20434;-77
2022/08/25 11:10:17;;;;;;;3.17;2.87;;;36.70;68.60;;;;;;4953040;28;20967;-80
2022/08/25 11:12:56;;;;;;;3.30;2.73;;;36.70;66.40;;;;;;4954557;28;20960;-77
2022/08/25 11:15:25;;;;;;;3.17;2.90;;;36.80;66.40;;;;;;4957030;28;20440;-78
2022/08/25 11:17:57;;;;;;;2.20;2.00;;;36.10;66.80;;;;;;4957998;29;20453;-80
2022/08/25 11:20:32;;;;;;;2.73;2.53;;;35.90;69.50;;;;;;4957498;28;20515;-77
2022/08/25 11:23:14;;;;;;;3.00;2.43;;;36.40;65.80;;;;;;4957942;28;20491;-77
2022/08/25 11:25:44;;;;;;;2.73;2.47;;;36.60;66.30;;;;;;4957878;28;20407;-78
2022/08/25 11:28:34;;;;;;;6.87;2.50;;;36.50;67.60;;;;;;4957842;28;20929;-76
2022/08/25 11:31:02;;;;;;;2.57;2.37;;;37.10;65.60;;;;;;4957384;28;20429;-78
2022/08/25 11:33:29;;;;;;;2.83;2.10;;;37.50;63.50;;;;;;4957686;28;20412;-77
2022/08/25 11:36:11;;;;;;;2.87;2.50;;;37.70;60.60;;;;;;4957637;28;20420;-78
2022/08/25 11:39:10;;;;;;;3.70;2.30;;;37.70;59.50;;;;;;4957421;28;20780;-76
2022/08/25 11:41:57;;;;;;;4.60;2.30;;;37.00;58.60;;;;;;4952191;28;20444;-77
2022/08/25 11:44:48;;;;;;;3.37;2.43;;;37.10;59.70;;;;;;4957515;29;20416;-79
2022/08/25 11:47:14;;;;;;;2.90;2.10;;;37.20;58.00;;;;;;4957650;28;20828;-77
2022/08/25 11:49:56;;;;;;;5.60;2.57;;;37.60;58.70;;;;;;4957384;28;20775;-76
2022/08/25 11:52:31;;;;;;;2.83;2.60;;;38.20;58.70;;;;;;4957548;28;20404;-76
2022/08/25 11:55:32;;;;;;;3.60;2.70;;;38.80;57.20;;;;;;4957355;29;20412;-76
2022/08/25 11:58:27;;;;;;;2.40;2.20;;;38.90;56.70;;;;;;4934697;28;20496;-77
2022/08/25 12:00:54;;;;;;;2.63;2.20;;;38.60;56.10;;;;;;4950237;28;20484;-74
2022/08/25 12:03:35;;;;;;;2.63;2.43;;;39.00;54.60;;;;;;4957058;28;20448;-77
2022/08/25 12:06:16;;;;;;;5.43;2.37;;;38.90;53.40;;;;;;4957049;28;20420;-76
2022/08/25 12:08:53;;;;;;;3.10;2.47;;;37.90;55.70;;;;;;4956923;28;20415;-74
2022/08/25 12:11:37;;;;;;;2.80;2.10;;;38.60;55.50;;;;;;4956572;28;20788;-75
2022/08/25 12:14:20;;;;;;;2.80;2.20;;;38.60;52.20;;;;;;4957174;29;20411;-77
2022/08/25 12:16:55;;;;;;;2.87;2.40;;;38.40;53.20;;;;;;4957067;28;20455;-76
2022/08/25 12:19:35;;;;;;;3.87;3.27;;;38.30;53.80;;;;;;4955652;29;20491;-76
2022/08/25 12:22:01;;;;;;;3.00;2.80;;;38.90;54.40;;;;;;4956572;28;20428;-77
2022/08/25 12:24:42;;;;;;;2.27;2.07;;;39.20;53.60;;;;;;4956611;28;20472;-74
2022/08/25 12:27:19;;;;;;;2.90;2.50;;;39.80;52.50;;;;;;4955278;29;20187;-76
2022/08/25 12:30:14;;;;;;;2.97;2.53;;;39.90;49.40;;;;;;4956507;28;20416;-78
2022/08/25 12:33:00;;;;;;;2.57;2.37;;;39.60;51.20;;;;;;4948898;29;20788;-77
2022/08/25 12:35:59;;;;;;;3.33;2.40;;;40.00;50.40;;;;;;4957033;28;20780;-75
2022/08/25 12:38:32;;;;;;;2.87;2.67;;;39.30;49.80;;;;;;4956908;28;20404;-76
2022/08/25 12:41:15;;;;;;;3.10;2.43;;;38.50;49.70;;;;;;4955188;28;20864;-76
2022/08/25 12:43:46;;;;;;;3.00;2.70;;;38.80;50.60;;;;;;4956754;28;20405;-75
2022/08/25 12:46:34;;;;;;;2.97;2.70;;;39.40;50.10;;;;;;4956483;28;20478;-75
2022/08/25 12:49:21;;;;;;;4.10;2.50;;;40.00;49.20;;;;;;4956755;28;20424;-77
2022/08/25 12:52:04;;;;;;;2.43;2.20;;;40.00;48.90;;;;;;4955581;28;20440;-76
2022/08/25 12:54:45;;;;;;;3.90;2.50;;;40.50;47.60;;;;;;4956319;29;20429;-77
2022/08/25 12:57:29;;;;;;;2.93;2.63;;;40.30;47.80;;;;;;4956423;29;20440;-75
2022/08/25 12:59:57;;;;;;;5.50;2.70;;;40.80;46.70;;;;;;4955848;29;20486;-75
2022/08/25 13:02:41;;;;;;;2.60;1.77;;;40.20;45.90;;;;;;4955998;29;20968;-76
2022/08/25 13:05:32;;;;;;;5.30;2.07;;;40.60;43.50;;;;;;4956113;29;20479;-76
2022/08/25 13:08:20;;;;;;;3.83;1.97;;;40.90;42.00;;;;;;4956113;29;20453;-76
2022/08/25 13:10:55;;;;;;;1.97;1.87;;;40.70;42.80;;;;;;4955654;28;20432;-75